sensor_id;sensor_type;location;lat;lon;timestamp;P1;durP1;ratioP1;P2;durP2;ratioP2
79464;SDS011;68932;47.410;8.232;2023-08-12T00:01:45;4.80;;;3.60;;
79464;SDS011;68932;47.410;8.232;2023-08-12T00:04:13;4.30;;;3.10;;
79464;SDS011;68932;47.410;8.232;2023-08-12T00:06:41;5.50;;;3.70;;
79464;SDS011;68932;47.410;8.232;2023-08-12T00:09:10;5.40;;;3.40;;
79464;SDS011;68932;47.410;8.232;2023-08-12T00:11:40;6.40;;;3.50;;
79464;SDS011;68932;47.410;8.232;2023-08-12T00:14:08;5.00;;;3.30;;
79464;SDS011;68932;47.410;8.232;2023-08-12T00:16:36;6.00;;;3.40;;
79464;SDS011;68932;47.410;8.232;2023-08-12T00:19:04;5.40;;;4.10;;
79464;SDS011;68932;47.410;8.232;2023-08-12T00:21:33;5.80;;;3.50;;
79464;SDS011;68932;47.410;8.232;2023-08-12T00:24:02;4.80;;;3.10;;
79464;SDS011;68932;47.410;8.232;2023-08-12T00:26:30;6.00;;;3.60;;
79464;SDS011;68932;47.410;8.232;2023-08-12T00:28:59;5.60;;;3.50;;
79464;SDS011;68932;47.410;8.232;2023-08-12T00:31:27;4.90;;;3.30;;
79464;SDS011;68932;47.410;8.232;2023-08-12T00:33:55;6.60;;;3.60;;
79464;SDS011;68932;47.410;8.232;2023-08-12T00:36:23;4.40;;;3.50;;
79464;SDS011;68932;47.410;8.232;2023-08-12T00:38:53;4.00;;;3.40;;
79464;SDS011;68932;47.410;8.232;2023-08-12T00:41:21;7.20;;;2.70;;
79464;SDS011;68932;47.410;8.232;2023-08-12T00:43:50;4.50;;;2.90;;
79464;SDS011;68932;47.410;8.232;2023-08-12T00:46:18;4.20;;;3.00;;
79464;SDS011;68932;47.410;8.232;2023-08-12T00:48:46;5.20;;;3.30;;
79464;SDS011;68932;47.410;8.232;2023-08-12T00:51:15;3.90;;;2.80;;
79464;SDS011;68932;47.410;8.232;2023-08-12T00:53:44;5.90;;;3.00;;
79464;SDS011;68932;47.410;8.232;2023-08-12T00:56:14;4.30;;;3.10;;
79464;SDS011;68932;47.410;8.232;2023-08-12T00:58:43;5.50;;;3.10;;
79464;SDS011;68932;47.410;8.232;2023-08-12T01:01:12;4.80;;;3.10;;
79464;SDS011;68932;47.410;8.232;2023-08-12T01:03:41;3.90;;;2.60;;
79464;SDS011;68932;47.410;8.232;2023-08-12T01:06:09;5.00;;;3.20;;
79464;SDS011;68932;47.410;8.232;2023-08-12T01:08:38;4.00;;;2.90;;
79464;SDS011;68932;47.410;8.232;2023-08-12T01:11:09;4.20;;;2.90;;
79464;SDS011;68932;47.410;8.232;2023-08-12T01:13:44;5.40;;;3.50;;
79464;SDS011;68932;47.410;8.232;2023-08-12T01:16:19;3.80;;;3.30;;
79464;SDS011;68932;47.410;8.232;2023-08-12T01:18:49;4.20;;;3.20;;
79464;SDS011;68932;47.410;8.232;2023-08-12T01:21:18;4.80;;;3.20;;
79464;SDS011;68932;47.410;8.232;2023-08-12T01:23:50;4.70;;;3.10;;
79464;SDS011;68932;47.410;8.232;2023-08-12T01:26:19;5.70;;;2.80;;
79464;SDS011;68932;47.410;8.232;2023-08-12T01:28:48;6.10;;;3.80;;
79464;SDS011;68932;47.410;8.232;2023-08-12T01:31:18;5.40;;;3.10;;
79464;SDS011;68932;47.410;8.232;2023-08-12T01:33:51;4.50;;;3.50;;
79464;SDS011;68932;47.410;8.232;2023-08-12T01:36:27;4.50;;;3.00;;
79464;SDS011;68932;47.410;8.232;2023-08-12T01:38:58;3.50;;;3.10;;
79464;SDS011;68932;47.410;8.232;2023-08-12T01:41:27;5.10;;;3.30;;
79464;SDS011;68932;47.410;8.232;2023-08-12T01:43:56;4.70;;;3.10;;
79464;SDS011;68932;47.410;8.232;2023-08-12T01:46:24;4.40;;;3.10;;
79464;SDS011;68932;47.410;8.232;2023-08-12T01:48:53;4.90;;;3.10;;
79464;SDS011;68932;47.410;8.232;2023-08-12T01:51:21;4.00;;;2.80;;
79464;SDS011;68932;47.410;8.232;2023-08-12T01:53:49;4.80;;;2.90;;
79464;SDS011;68932;47.410;8.232;2023-08-12T01:56:18;5.20;;;3.50;;
79464;SDS011;68932;47.410;8.232;2023-08-12T01:58:46;4.00;;;3.10;;
79464;SDS011;68932;47.410;8.232;2023-08-12T02:01:14;4.10;;;2.80;;
79464;SDS011;68932;47.410;8.232;2023-08-12T02:03:42;4.30;;;3.20;;
79464;SDS011;68932;47.410;8.232;2023-08-12T02:06:11;5.30;;;4.10;;
79464;SDS011;68932;47.410;8.232;2023-08-12T02:08:39;5.10;;;2.90;;
79464;SDS011;68932;47.410;8.232;2023-08-12T02:11:07;4.80;;;3.10;;
79464;SDS011;68932;47.410;8.232;2023-08-12T02:13:35;4.50;;;2.90;;
79464;SDS011;68932;47.410;8.232;2023-08-12T02:16:04;4.50;;;3.00;;
79464;SDS011;68932;47.410;8.232;2023-08-12T02:18:32;6.60;;;3.30;;
79464;SDS011;68932;47.410;8.232;2023-08-12T02:21:00;4.60;;;2.80;;
79464;SDS011;68932;47.410;8.232;2023-08-12T02:23:29;4.10;;;2.60;;
79464;SDS011;68932;47.410;8.232;2023-08-12T02:25:57;4.20;;;3.30;;
79464;SDS011;68932;47.410;8.232;2023-08-12T02:28:25;6.80;;;3.50;;
79464;SDS011;68932;47.410;8.232;2023-08-12T02:30:54;3.80;;;3.10;;
79464;SDS011;68932;47.410;8.232;2023-08-12T02:33:22;4.80;;;3.20;;
79464;SDS011;68932;47.410;8.232;2023-08-12T02:35:53;4.70;;;3.30;;
79464;SDS011;68932;47.410;8.232;2023-08-12T02:38:22;5.50;;;3.30;;
79464;SDS011;68932;47.410;8.232;2023-08-12T02:40:50;5.40;;;3.50;;
79464;SDS011;68932;47.410;8.232;2023-08-12T02:43:19;4.60;;;4.10;;
79464;SDS011;68932;47.410;8.232;2023-08-12T02:45:47;7.60;;;3.30;;
79464;SDS011;68932;47.410;8.232;2023-08-12T02:48:15;5.20;;;3.20;;
79464;SDS011;68932;47.410;8.232;2023-08-12T02:50:43;6.10;;;3.80;;
79464;SDS011;68932;47.410;8.232;2023-08-12T02:53:12;6.80;;;3.50;;
79464;SDS011;68932;47.410;8.232;2023-08-12T02:55:41;5.50;;;3.60;;
79464;SDS011;68932;47.410;8.232;2023-08-12T02:58:11;5.80;;;4.30;;
79464;SDS011;68932;47.410;8.232;2023-08-12T03:00:41;5.70;;;3.80;;
79464;SDS011;68932;47.410;8.232;2023-08-12T03:03:10;6.60;;;4.70;;
79464;SDS011;68932;47.410;8.232;2023-08-12T03:05:38;8.10;;;4.60;;
79464;SDS011;68932;47.410;8.232;2023-08-12T03:08:07;6.40;;;3.90;;
79464;SDS011;68932;47.410;8.232;2023-08-12T03:10:35;6.30;;;4.10;;
79464;SDS011;68932;47.410;8.232;2023-08-12T03:13:04;4.70;;;3.70;;
79464;SDS011;68932;47.410;8.232;2023-08-12T03:15:32;4.80;;;3.90;;
79464;SDS011;68932;47.410;8.232;2023-08-12T03:18:01;6.40;;;4.10;;
79464;SDS011;68932;47.410;8.232;2023-08-12T03:20:29;6.40;;;3.70;;
79464;SDS011;68932;47.410;8.232;2023-08-12T03:22:58;7.50;;;4.60;;
79464;SDS011;68932;47.410;8.232;2023-08-12T03:25:26;6.50;;;3.70;;
79464;SDS011;68932;47.410;8.232;2023-08-12T03:27:54;5.30;;;4.10;;
79464;SDS011;68932;47.410;8.232;2023-08-12T03:30:23;5.40;;;4.20;;
79464;SDS011;68932;47.410;8.232;2023-08-12T03:32:52;6.50;;;4.30;;
79464;SDS011;68932;47.410;8.232;2023-08-12T03:35:20;5.50;;;3.80;;
79464;SDS011;68932;47.410;8.232;2023-08-12T03:37:48;5.50;;;4.00;;
79464;SDS011;68932;47.410;8.232;2023-08-12T03:40:17;5.90;;;3.80;;
79464;SDS011;68932;47.410;8.232;2023-08-12T03:42:45;7.40;;;3.30;;
79464;SDS011;68932;47.410;8.232;2023-08-12T03:45:13;5.90;;;3.80;;
79464;SDS011;68932;47.410;8.232;2023-08-12T03:47:42;5.00;;;3.80;;
79464;SDS011;68932;47.410;8.232;2023-08-12T03:50:10;5.40;;;3.70;;
79464;SDS011;68932;47.410;8.232;2023-08-12T03:52:38;4.50;;;4.00;;
79464;SDS011;68932;47.410;8.232;2023-08-12T03:55:08;5.90;;;3.90;;
79464;SDS011;68932;47.410;8.232;2023-08-12T03:57:37;4.80;;;4.00;;
79464;SDS011;68932;47.410;8.232;2023-08-12T04:00:06;5.50;;;4.50;;
79464;SDS011;68932;47.410;8.232;2023-08-12T04:02:36;7.10;;;4.50;;
79464;SDS011;68932;47.410;8.232;2023-08-12T04:05:05;5.80;;;4.40;;
79464;SDS011;68932;47.410;8.232;2023-08-12T04:07:35;6.10;;;4.00;;
79464;SDS011;68932;47.410;8.232;2023-08-12T04:10:04;6.30;;;4.10;;
79464;SDS011;68932;47.410;8.232;2023-08-12T04:12:33;4.80;;;3.90;;
79464;SDS011;68932;47.410;8.232;2023-08-12T04:15:02;7.10;;;4.20;;
79464;SDS011;68932;47.410;8.232;2023-08-12T04:17:31;6.60;;;4.50;;
79464;SDS011;68932;47.410;8.232;2023-08-12T04:19:59;6.00;;;3.80;;
79464;SDS011;68932;47.410;8.232;2023-08-12T04:22:28;4.80;;;4.00;;
79464;SDS011;68932;47.410;8.232;2023-08-12T04:24:56;5.90;;;4.00;;
79464;SDS011;68932;47.410;8.232;2023-08-12T04:27:24;4.80;;;4.30;;
79464;SDS011;68932;47.410;8.232;2023-08-12T04:29:53;5.10;;;4.00;;
79464;SDS011;68932;47.410;8.232;2023-08-12T04:32:21;5.90;;;4.70;;
79464;SDS011;68932;47.410;8.232;2023-08-12T04:34:49;5.30;;;3.70;;
79464;SDS011;68932;47.410;8.232;2023-08-12T04:37:17;6.80;;;4.10;;
79464;SDS011;68932;47.410;8.232;2023-08-12T04:39:45;7.20;;;3.90;;
79464;SDS011;68932;47.410;8.232;2023-08-12T04:42:14;4.90;;;3.90;;
79464;SDS011;68932;47.410;8.232;2023-08-12T04:44:42;5.50;;;3.90;;
79464;SDS011;68932;47.410;8.232;2023-08-12T04:47:10;7.50;;;4.00;;
79464;SDS011;68932;47.410;8.232;2023-08-12T04:49:38;5.50;;;4.40;;
79464;SDS011;68932;47.410;8.232;2023-08-12T04:52:07;5.70;;;3.80;;
79464;SDS011;68932;47.410;8.232;2023-08-12T04:54:35;6.00;;;4.10;;
79464;SDS011;68932;47.410;8.232;2023-08-12T04:57:04;7.90;;;4.10;;
79464;SDS011;68932;47.410;8.232;2023-08-12T04:59:32;6.10;;;4.40;;
79464;SDS011;68932;47.410;8.232;2023-08-12T05:02:00;6.50;;;4.30;;
79464;SDS011;68932;47.410;8.232;2023-08-12T05:04:29;6.30;;;4.10;;
79464;SDS011;68932;47.410;8.232;2023-08-12T05:06:57;6.90;;;4.40;;
79464;SDS011;68932;47.410;8.232;2023-08-12T05:09:25;7.70;;;4.40;;
79464;SDS011;68932;47.410;8.232;2023-08-12T05:11:54;6.00;;;3.70;;
79464;SDS011;68932;47.410;8.232;2023-08-12T05:14:22;7.00;;;3.90;;
79464;SDS011;68932;47.410;8.232;2023-08-12T05:16:50;6.20;;;3.80;;
79464;SDS011;68932;47.410;8.232;2023-08-12T05:19:19;5.80;;;4.10;;
79464;SDS011;68932;47.410;8.232;2023-08-12T05:21:48;7.60;;;4.10;;
79464;SDS011;68932;47.410;8.232;2023-08-12T05:24:16;7.30;;;4.10;;
79464;SDS011;68932;47.410;8.232;2023-08-12T05:26:44;6.60;;;4.90;;
79464;SDS011;68932;47.410;8.232;2023-08-12T05:29:13;6.10;;;4.30;;
79464;SDS011;68932;47.410;8.232;2023-08-12T05:31:41;7.40;;;5.00;;
79464;SDS011;68932;47.410;8.232;2023-08-12T05:34:09;5.20;;;4.30;;
79464;SDS011;68932;47.410;8.232;2023-08-12T05:36:37;5.50;;;4.40;;
79464;SDS011;68932;47.410;8.232;2023-08-12T05:39:06;7.10;;;4.50;;
79464;SDS011;68932;47.410;8.232;2023-08-12T05:41:34;5.80;;;4.40;;
79464;SDS011;68932;47.410;8.232;2023-08-12T05:44:03;8.10;;;4.40;;
79464;SDS011;68932;47.410;8.232;2023-08-12T05:46:32;6.20;;;3.80;;
79464;SDS011;68932;47.410;8.232;2023-08-12T05:49:00;5.40;;;4.80;;
79464;SDS011;68932;47.410;8.232;2023-08-12T05:51:29;5.50;;;4.10;;
79464;SDS011;68932;47.410;8.232;2023-08-12T05:53:57;7.10;;;4.90;;
79464;SDS011;68932;47.410;8.232;2023-08-12T05:56:25;7.20;;;5.00;;
79464;SDS011;68932;47.410;8.232;2023-08-12T05:58:54;7.00;;;4.60;;
79464;SDS011;68932;47.410;8.232;2023-08-12T06:01:22;5.50;;;4.90;;
79464;SDS011;68932;47.410;8.232;2023-08-12T06:03:50;6.10;;;5.50;;
79464;SDS011;68932;47.410;8.232;2023-08-12T06:06:19;5.70;;;4.90;;
79464;SDS011;68932;47.410;8.232;2023-08-12T06:08:47;7.10;;;4.80;;
79464;SDS011;68932;47.410;8.232;2023-08-12T06:11:15;7.80;;;5.20;;
79464;SDS011;68932;47.410;8.232;2023-08-12T06:13:44;6.70;;;5.50;;
79464;SDS011;68932;47.410;8.232;2023-08-12T06:16:12;7.10;;;5.30;;
79464;SDS011;68932;47.410;8.232;2023-08-12T06:18:40;6.30;;;5.20;;
79464;SDS011;68932;47.410;8.232;2023-08-12T06:21:08;8.10;;;5.50;;
79464;SDS011;68932;47.410;8.232;2023-08-12T06:23:36;8.40;;;5.40;;
79464;SDS011;68932;47.410;8.232;2023-08-12T06:26:05;6.50;;;4.60;;
79464;SDS011;68932;47.410;8.232;2023-08-12T06:28:33;6.80;;;5.10;;
79464;SDS011;68932;47.410;8.232;2023-08-12T06:31:01;7.30;;;5.40;;
79464;SDS011;68932;47.410;8.232;2023-08-12T06:33:30;6.30;;;4.70;;
79464;SDS011;68932;47.410;8.232;2023-08-12T06:35:58;6.20;;;5.10;;
79464;SDS011;68932;47.410;8.232;2023-08-12T06:38:26;7.40;;;5.40;;
79464;SDS011;68932;47.410;8.232;2023-08-12T06:40:55;6.50;;;5.00;;
79464;SDS011;68932;47.410;8.232;2023-08-12T06:43:24;6.50;;;4.80;;
79464;SDS011;68932;47.410;8.232;2023-08-12T06:45:52;6.10;;;4.90;;
79464;SDS011;68932;47.410;8.232;2023-08-12T06:48:20;6.40;;;4.90;;
79464;SDS011;68932;47.410;8.232;2023-08-12T06:50:53;6.60;;;4.80;;
79464;SDS011;68932;47.410;8.232;2023-08-12T06:53:22;7.10;;;5.40;;
79464;SDS011;68932;47.410;8.232;2023-08-12T06:55:51;7.10;;;5.10;;
79464;SDS011;68932;47.410;8.232;2023-08-12T06:58:19;6.20;;;4.90;;
79464;SDS011;68932;47.410;8.232;2023-08-12T07:00:47;5.90;;;5.00;;
79464;SDS011;68932;47.410;8.232;2023-08-12T07:03:16;6.40;;;4.70;;
79464;SDS011;68932;47.410;8.232;2023-08-12T07:05:44;6.80;;;4.90;;
79464;SDS011;68932;47.410;8.232;2023-08-12T07:08:12;6.60;;;5.10;;
79464;SDS011;68932;47.410;8.232;2023-08-12T07:10:40;6.60;;;4.60;;
79464;SDS011;68932;47.410;8.232;2023-08-12T07:13:09;6.50;;;4.90;;
79464;SDS011;68932;47.410;8.232;2023-08-12T07:15:37;4.70;;;3.90;;
79464;SDS011;68932;47.410;8.232;2023-08-12T07:18:06;5.50;;;4.60;;
79464;SDS011;68932;47.410;8.232;2023-08-12T07:20:34;5.80;;;4.70;;
79464;SDS011;68932;47.410;8.232;2023-08-12T07:23:03;7.00;;;4.40;;
79464;SDS011;68932;47.410;8.232;2023-08-12T07:25:31;7.80;;;4.50;;
79464;SDS011;68932;47.410;8.232;2023-08-12T07:28:00;6.20;;;4.30;;
79464;SDS011;68932;47.410;8.232;2023-08-12T07:30:28;5.90;;;4.40;;
79464;SDS011;68932;47.410;8.232;2023-08-12T07:32:56;5.70;;;4.30;;
79464;SDS011;68932;47.410;8.232;2023-08-12T07:35:25;6.90;;;5.00;;
79464;SDS011;68932;47.410;8.232;2023-08-12T07:37:53;6.90;;;5.00;;
79464;SDS011;68932;47.410;8.232;2023-08-12T07:40:21;5.00;;;4.40;;
79464;SDS011;68932;47.410;8.232;2023-08-12T07:42:50;5.70;;;4.10;;
79464;SDS011;68932;47.410;8.232;2023-08-12T07:45:18;5.50;;;4.10;;
79464;SDS011;68932;47.410;8.232;2023-08-12T07:47:47;5.70;;;4.40;;
79464;SDS011;68932;47.410;8.232;2023-08-12T07:50:17;5.80;;;4.90;;
79464;SDS011;68932;47.410;8.232;2023-08-12T07:52:45;4.80;;;4.30;;
79464;SDS011;68932;47.410;8.232;2023-08-12T07:55:14;6.90;;;4.90;;
79464;SDS011;68932;47.410;8.232;2023-08-12T07:57:42;7.10;;;5.20;;
79464;SDS011;68932;47.410;8.232;2023-08-12T08:00:12;7.20;;;5.00;;
79464;SDS011;68932;47.410;8.232;2023-08-12T08:02:40;5.80;;;4.30;;
79464;SDS011;68932;47.410;8.232;2023-08-12T08:05:09;8.00;;;5.10;;
79464;SDS011;68932;47.410;8.232;2023-08-12T08:07:37;10.10;;;5.00;;
79464;SDS011;68932;47.410;8.232;2023-08-12T08:10:06;5.90;;;5.30;;
79464;SDS011;68932;47.410;8.232;2023-08-12T08:12:35;6.90;;;4.80;;
79464;SDS011;68932;47.410;8.232;2023-08-12T08:15:05;7.80;;;4.60;;
79464;SDS011;68932;47.410;8.232;2023-08-12T08:17:34;6.20;;;4.60;;
79464;SDS011;68932;47.410;8.232;2023-08-12T08:20:03;6.00;;;5.20;;
79464;SDS011;68932;47.410;8.232;2023-08-12T08:22:33;6.30;;;4.90;;
79464;SDS011;68932;47.410;8.232;2023-08-12T08:25:02;5.80;;;4.40;;
79464;SDS011;68932;47.410;8.232;2023-08-12T08:27:30;5.90;;;4.60;;
79464;SDS011;68932;47.410;8.232;2023-08-12T08:29:59;7.40;;;5.20;;
79464;SDS011;68932;47.410;8.232;2023-08-12T08:32:27;5.60;;;4.30;;
79464;SDS011;68932;47.410;8.232;2023-08-12T08:34:55;5.90;;;4.50;;
79464;SDS011;68932;47.410;8.232;2023-08-12T08:37:24;7.40;;;4.80;;
79464;SDS011;68932;47.410;8.232;2023-08-12T08:39:52;7.20;;;4.90;;
79464;SDS011;68932;47.410;8.232;2023-08-12T08:42:20;7.40;;;5.10;;
79464;SDS011;68932;47.410;8.232;2023-08-12T08:44:51;5.30;;;4.50;;
79464;SDS011;68932;47.410;8.232;2023-08-12T08:47:25;6.50;;;4.70;;
79464;SDS011;68932;47.410;8.232;2023-08-12T08:49:54;6.00;;;4.50;;
79464;SDS011;68932;47.410;8.232;2023-08-12T08:52:24;6.00;;;4.40;;
79464;SDS011;68932;47.410;8.232;2023-08-12T08:54:52;7.80;;;4.80;;
79464;SDS011;68932;47.410;8.232;2023-08-12T08:57:21;5.90;;;4.90;;
79464;SDS011;68932;47.410;8.232;2023-08-12T08:59:49;5.10;;;4.30;;
79464;SDS011;68932;47.410;8.232;2023-08-12T09:02:17;4.80;;;4.20;;
79464;SDS011;68932;47.410;8.232;2023-08-12T09:04:46;6.60;;;4.10;;
79464;SDS011;68932;47.410;8.232;2023-08-12T09:07:15;7.30;;;4.30;;
79464;SDS011;68932;47.410;8.232;2023-08-12T09:09:46;5.60;;;4.40;;
79464;SDS011;68932;47.410;8.232;2023-08-12T09:12:15;6.10;;;4.80;;
79464;SDS011;68932;47.410;8.232;2023-08-12T09:14:44;5.10;;;4.40;;
79464;SDS011;68932;47.410;8.232;2023-08-12T09:17:13;6.40;;;4.40;;
79464;SDS011;68932;47.410;8.232;2023-08-12T09:19:42;7.70;;;4.20;;
79464;SDS011;68932;47.410;8.232;2023-08-12T09:22:11;6.80;;;4.50;;
79464;SDS011;68932;47.410;8.232;2023-08-12T09:24:40;5.80;;;4.40;;
79464;SDS011;68932;47.410;8.232;2023-08-12T09:27:08;4.30;;;3.80;;
79464;SDS011;68932;47.410;8.232;2023-08-12T09:29:37;5.90;;;4.10;;
79464;SDS011;68932;47.410;8.232;2023-08-12T09:32:11;5.40;;;4.40;;
79464;SDS011;68932;47.410;8.232;2023-08-12T09:34:46;5.50;;;4.20;;
79464;SDS011;68932;47.410;8.232;2023-08-12T09:37:15;6.20;;;4.00;;
79464;SDS011;68932;47.410;8.232;2023-08-12T09:39:43;5.00;;;4.50;;
79464;SDS011;68932;47.410;8.232;2023-08-12T09:42:13;5.50;;;4.40;;
79464;SDS011;68932;47.410;8.232;2023-08-12T09:44:42;5.70;;;4.30;;
79464;SDS011;68932;47.410;8.232;2023-08-12T09:47:10;5.70;;;4.50;;
79464;SDS011;68932;47.410;8.232;2023-08-12T09:49:39;7.50;;;4.70;;
79464;SDS011;68932;47.410;8.232;2023-08-12T09:52:08;5.60;;;4.20;;
79464;SDS011;68932;47.410;8.232;2023-08-12T09:54:36;6.10;;;4.40;;
79464;SDS011;68932;47.410;8.232;2023-08-12T09:57:05;5.50;;;4.30;;
79464;SDS011;68932;47.410;8.232;2023-08-12T09:59:37;6.50;;;4.90;;
79464;SDS011;68932;47.410;8.232;2023-08-12T10:02:07;6.20;;;4.30;;
79464;SDS011;68932;47.410;8.232;2023-08-12T10:04:41;5.70;;;4.00;;
79464;SDS011;68932;47.410;8.232;2023-08-12T10:07:11;7.00;;;4.40;;
79464;SDS011;68932;47.410;8.232;2023-08-12T10:09:40;5.50;;;4.40;;
79464;SDS011;68932;47.410;8.232;2023-08-12T10:12:10;5.80;;;3.70;;
79464;SDS011;68932;47.410;8.232;2023-08-12T10:14:39;5.10;;;4.60;;
79464;SDS011;68932;47.410;8.232;2023-08-12T10:17:08;6.20;;;5.10;;
79464;SDS011;68932;47.410;8.232;2023-08-12T10:19:37;5.30;;;4.20;;
79464;SDS011;68932;47.410;8.232;2023-08-12T10:22:10;4.70;;;3.70;;
79464;SDS011;68932;47.410;8.232;2023-08-12T10:24:38;4.70;;;3.30;;
79464;SDS011;68932;47.410;8.232;2023-08-12T10:27:08;4.60;;;3.20;;
79464;SDS011;68932;47.410;8.232;2023-08-12T10:29:38;6.60;;;4.00;;
79464;SDS011;68932;47.410;8.232;2023-08-12T10:32:08;3.90;;;3.50;;
79464;SDS011;68932;47.410;8.232;2023-08-12T10:34:37;6.50;;;4.00;;
79464;SDS011;68932;47.410;8.232;2023-08-12T10:37:05;4.40;;;3.90;;
79464;SDS011;68932;47.410;8.232;2023-08-12T10:39:36;5.80;;;4.10;;
79464;SDS011;68932;47.410;8.232;2023-08-12T10:42:05;7.30;;;4.10;;
79464;SDS011;68932;47.410;8.232;2023-08-12T10:44:39;4.10;;;3.60;;
79464;SDS011;68932;47.410;8.232;2023-08-12T10:47:16;5.50;;;3.90;;
79464;SDS011;68932;47.410;8.232;2023-08-12T10:49:47;6.40;;;3.80;;
79464;SDS011;68932;47.410;8.232;2023-08-12T10:52:28;7.70;;;3.70;;
79464;SDS011;68932;47.410;8.232;2023-08-12T10:57:47;5.00;;;3.30;;
79464;SDS011;68932;47.410;8.232;2023-08-12T11:00:16;4.70;;;4.00;;
79464;SDS011;68932;47.410;8.232;2023-08-12T11:02:47;4.00;;;3.10;;
79464;SDS011;68932;47.410;8.232;2023-08-12T11:07:45;4.90;;;3.90;;
79464;SDS011;68932;47.410;8.232;2023-08-12T11:10:15;4.20;;;3.80;;
79464;SDS011;68932;47.410;8.232;2023-08-12T11:12:53;4.70;;;3.70;;
79464;SDS011;68932;47.410;8.232;2023-08-12T11:15:30;4.70;;;3.50;;
79464;SDS011;68932;47.410;8.232;2023-08-12T11:18:01;4.50;;;3.00;;
79464;SDS011;68932;47.410;8.232;2023-08-12T11:20:30;4.10;;;3.50;;
79464;SDS011;68932;47.410;8.232;2023-08-12T11:22:59;5.10;;;3.10;;
79464;SDS011;68932;47.410;8.232;2023-08-12T11:25:28;4.10;;;3.20;;
79464;SDS011;68932;47.410;8.232;2023-08-12T11:27:58;4.30;;;3.50;;
79464;SDS011;68932;47.410;8.232;2023-08-12T11:30:27;5.80;;;4.20;;
79464;SDS011;68932;47.410;8.232;2023-08-12T11:32:55;4.70;;;3.60;;
79464;SDS011;68932;47.410;8.232;2023-08-12T11:35:24;4.50;;;3.60;;
79464;SDS011;68932;47.410;8.232;2023-08-12T11:37:53;6.60;;;4.30;;
79464;SDS011;68932;47.410;8.232;2023-08-12T11:40:23;4.90;;;3.50;;
79464;SDS011;68932;47.410;8.232;2023-08-12T11:42:53;5.50;;;3.70;;
79464;SDS011;68932;47.410;8.232;2023-08-12T11:45:22;5.50;;;3.80;;
79464;SDS011;68932;47.410;8.232;2023-08-12T11:47:51;6.50;;;4.20;;
79464;SDS011;68932;47.410;8.232;2023-08-12T11:50:21;7.00;;;3.80;;
79464;SDS011;68932;47.410;8.232;2023-08-12T11:52:50;5.10;;;3.90;;
79464;SDS011;68932;47.410;8.232;2023-08-12T11:55:20;5.50;;;3.80;;
79464;SDS011;68932;47.410;8.232;2023-08-12T11:57:49;6.70;;;4.30;;
79464;SDS011;68932;47.410;8.232;2023-08-12T12:00:18;5.00;;;3.70;;
79464;SDS011;68932;47.410;8.232;2023-08-12T12:02:47;7.70;;;4.20;;
79464;SDS011;68932;47.410;8.232;2023-08-12T12:05:17;5.50;;;3.80;;
79464;SDS011;68932;47.410;8.232;2023-08-12T12:07:47;4.20;;;3.60;;
79464;SDS011;68932;47.410;8.232;2023-08-12T12:10:19;5.50;;;3.90;;
79464;SDS011;68932;47.410;8.232;2023-08-12T12:12:53;5.20;;;3.60;;
79464;SDS011;68932;47.410;8.232;2023-08-12T12:15:26;4.10;;;3.30;;
79464;SDS011;68932;47.410;8.232;2023-08-12T12:17:54;4.30;;;3.40;;
79464;SDS011;68932;47.410;8.232;2023-08-12T12:20:22;5.30;;;3.40;;
79464;SDS011;68932;47.410;8.232;2023-08-12T12:22:50;4.90;;;3.50;;
79464;SDS011;68932;47.410;8.232;2023-08-12T12:25:18;3.80;;;3.00;;
79464;SDS011;68932;47.410;8.232;2023-08-12T12:27:48;4.90;;;3.80;;
79464;SDS011;68932;47.410;8.232;2023-08-12T12:30:16;4.30;;;3.60;;
79464;SDS011;68932;47.410;8.232;2023-08-12T12:32:44;5.50;;;3.60;;
79464;SDS011;68932;47.410;8.232;2023-08-12T12:35:13;3.90;;;2.80;;
79464;SDS011;68932;47.410;8.232;2023-08-12T12:37:42;4.00;;;2.90;;
79464;SDS011;68932;47.410;8.232;2023-08-12T12:40:11;5.00;;;3.10;;
79464;SDS011;68932;47.410;8.232;2023-08-12T12:42:39;4.40;;;3.00;;
79464;SDS011;68932;47.410;8.232;2023-08-12T12:45:10;4.40;;;3.30;;
79464;SDS011;68932;47.410;8.232;2023-08-12T12:47:38;4.10;;;2.70;;
79464;SDS011;68932;47.410;8.232;2023-08-12T12:50:07;3.80;;;2.50;;
79464;SDS011;68932;47.410;8.232;2023-08-12T12:52:35;4.90;;;3.50;;
79464;SDS011;68932;47.410;8.232;2023-08-12T12:55:04;5.50;;;3.20;;
79464;SDS011;68932;47.410;8.232;2023-08-12T12:57:34;5.30;;;2.70;;
79464;SDS011;68932;47.410;8.232;2023-08-12T13:00:03;4.90;;;3.30;;
79464;SDS011;68932;47.410;8.232;2023-08-12T13:02:32;4.30;;;3.50;;
79464;SDS011;68932;47.410;8.232;2023-08-12T13:05:00;3.40;;;2.70;;
79464;SDS011;68932;47.410;8.232;2023-08-12T13:07:29;6.30;;;3.30;;
79464;SDS011;68932;47.410;8.232;2023-08-12T13:09:57;3.70;;;2.80;;
79464;SDS011;68932;47.410;8.232;2023-08-12T13:12:25;3.40;;;2.90;;
79464;SDS011;68932;47.410;8.232;2023-08-12T13:14:54;5.20;;;3.20;;
79464;SDS011;68932;47.410;8.232;2023-08-12T13:17:22;3.80;;;2.80;;
79464;SDS011;68932;47.410;8.232;2023-08-12T13:19:50;3.90;;;2.80;;
79464;SDS011;68932;47.410;8.232;2023-08-12T13:22:19;6.30;;;3.10;;
79464;SDS011;68932;47.410;8.232;2023-08-12T13:24:47;4.00;;;3.30;;
79464;SDS011;68932;47.410;8.232;2023-08-12T13:27:15;5.50;;;3.20;;
79464;SDS011;68932;47.410;8.232;2023-08-12T13:29:43;3.70;;;2.80;;
79464;SDS011;68932;47.410;8.232;2023-08-12T13:32:12;3.50;;;3.10;;
79464;SDS011;68932;47.410;8.232;2023-08-12T13:34:41;3.90;;;2.70;;
79464;SDS011;68932;47.410;8.232;2023-08-12T13:37:09;4.10;;;2.90;;
79464;SDS011;68932;47.410;8.232;2023-08-12T13:39:37;4.30;;;2.80;;
79464;SDS011;68932;47.410;8.232;2023-08-12T13:42:06;3.40;;;2.60;;
79464;SDS011;68932;47.410;8.232;2023-08-12T13:44:34;4.20;;;3.10;;
79464;SDS011;68932;47.410;8.232;2023-08-12T13:47:02;3.70;;;2.80;;
79464;SDS011;68932;47.410;8.232;2023-08-12T13:49:31;3.60;;;2.70;;
79464;SDS011;68932;47.410;8.232;2023-08-12T13:51:59;5.30;;;2.80;;
79464;SDS011;68932;47.410;8.232;2023-08-12T13:54:28;5.70;;;3.20;;
79464;SDS011;68932;47.410;8.232;2023-08-12T13:56:56;3.60;;;3.10;;
79464;SDS011;68932;47.410;8.232;2023-08-12T13:59:25;3.80;;;2.50;;
79464;SDS011;68932;47.410;8.232;2023-08-12T14:01:54;3.60;;;2.90;;
79464;SDS011;68932;47.410;8.232;2023-08-12T14:04:22;6.40;;;3.10;;
79464;SDS011;68932;47.410;8.232;2023-08-12T14:06:50;5.20;;;3.20;;
79464;SDS011;68932;47.410;8.232;2023-08-12T14:09:18;4.10;;;3.10;;
79464;SDS011;68932;47.410;8.232;2023-08-12T14:11:46;4.70;;;3.10;;
79464;SDS011;68932;47.410;8.232;2023-08-12T14:14:15;4.70;;;3.20;;
79464;SDS011;68932;47.410;8.232;2023-08-12T14:16:43;4.80;;;3.10;;
79464;SDS011;68932;47.410;8.232;2023-08-12T14:19:11;4.50;;;3.10;;
79464;SDS011;68932;47.410;8.232;2023-08-12T14:21:39;5.40;;;3.70;;
79464;SDS011;68932;47.410;8.232;2023-08-12T14:24:08;5.10;;;3.70;;
79464;SDS011;68932;47.410;8.232;2023-08-12T14:26:36;5.20;;;3.30;;
79464;SDS011;68932;47.410;8.232;2023-08-12T14:29:05;6.00;;;3.00;;
79464;SDS011;68932;47.410;8.232;2023-08-12T14:31:34;5.30;;;3.50;;
79464;SDS011;68932;47.410;8.232;2023-08-12T14:34:02;5.90;;;3.90;;
79464;SDS011;68932;47.410;8.232;2023-08-12T14:36:30;4.40;;;3.40;;
79464;SDS011;68932;47.410;8.232;2023-08-12T14:38:58;5.70;;;4.00;;
79464;SDS011;68932;47.410;8.232;2023-08-12T14:41:27;7.30;;;3.60;;
79464;SDS011;68932;47.410;8.232;2023-08-12T14:43:55;4.80;;;3.20;;
79464;SDS011;68932;47.410;8.232;2023-08-12T14:46:23;4.40;;;3.40;;
79464;SDS011;68932;47.410;8.232;2023-08-12T14:48:51;6.50;;;3.40;;
79464;SDS011;68932;47.410;8.232;2023-08-12T14:51:20;4.00;;;3.00;;
79464;SDS011;68932;47.410;8.232;2023-08-12T14:53:48;5.30;;;3.20;;
79464;SDS011;68932;47.410;8.232;2023-08-12T14:56:17;4.70;;;3.70;;
79464;SDS011;68932;47.410;8.232;2023-08-12T14:58:45;5.60;;;3.60;;
79464;SDS011;68932;47.410;8.232;2023-08-12T15:01:13;4.80;;;3.50;;
79464;SDS011;68932;47.410;8.232;2023-08-12T15:03:42;5.90;;;3.30;;